Tropical Cyclones
[Index]
Main Index Home Page Stock Weather Photos Extreme Storms Discussion Storm News and Storm Chasing Reports Tropical Cyclones / Hurricanes / Typhoons Weather Data and Links Wild Fires / Bushfires Weather Observation Techniques Weather Picture Catalogue Tornado Pictures and Reports Stock Video Footage and DVDs for sale
Season 1959-1960 Tropical Cyclone 196019 Track Map
Season 1959-1960 Summaries: [BoM-AU] [JTWC-AU] [JTWC-SIO] [JTWC-SPAC] [JTWC-SH]
<<- Previous TC | JTWC 1959-1960 Season | Next TC ->>

click for intensity scale information  Lat/long Grid: Show Hide

 Date Labels: Show Hide

Joint Typhoon Warning Centre Cyclone Data

Name: 196019
Number: 389 / 6019

19 Mar 1960 18:00 UTC to 27 Mar 1960 12:00 UTC

    date/time    lat    long     hPa   cat  kts
1960-03-19 18   12.0   144.0                  20          
1960-03-20 00   12.0   143.9                  20          
1960-03-20 06   12.0   143.2                  20          
1960-03-20 12   12.0   142.2                  15          
1960-03-20 18   12.0   141.2                  15          
1960-03-21 00   12.0   140.1                  15          
1960-03-21 06   12.2   138.8                  15          
1960-03-21 12   12.5   137.3                  10          
1960-03-21 18   12.8   135.8                  10          
1960-03-22 00   12.9   134.4                  25          
1960-03-22 06   12.9   133.0                  30          
1960-03-22 12   12.6   131.8                  25          
1960-03-22 18   12.3   130.5                  20          
1960-03-23 00   12.1   129.0                  20          
1960-03-23 06   12.5   127.4                  20          
1960-03-23 12   13.3   125.6                  10          
1960-03-23 18   14.0   124.2                  10          
1960-03-24 00   14.7   123.1                  25          
1960-03-24 06   15.4   121.9                  35          
1960-03-24 12   15.9   120.6            1     40          
1960-03-24 18   16.4   119.4            1     45          
1960-03-25 00   16.9   118.2            1     45          
1960-03-25 06   17.8   117.1            1     40          
1960-03-25 12   18.8   116.1                  30          
1960-03-25 18   19.8   115.2                  25          
1960-03-26 00   20.8   114.4                  35          
1960-03-26 06   21.8   113.7            1     40          
1960-03-26 12   22.8   113.4            1     45          
1960-03-26 18   24.0   113.5            1     45          
1960-03-27 00   26.5   113.7            1     50          
1960-03-27 06   29.5   114.1            2     55          
1960-03-27 12   32.7   114.6            1     50          
Winds are 1-min average.

Tropical cyclone tracks developed by Michael Bath using data from the Joint Typhoon Warning Centre Best Tracks and Google Maps.


[Australian Severe Weather index] [Copyright Notice] [Email Contacts] [Search This Site] [Privacy Policy]
Document: tropical_cyclone_196019.htm Updated: 18 September 2016